sensor_id;sensor_type;location;lat;lon;timestamp;P1;durP1;ratioP1;P2;durP2;ratioP2
8327;SDS011;4201;48.754;8.864;2024-03-23T00:54:12;8.10;;;5.30;;
8327;SDS011;4201;48.754;8.864;2024-03-23T00:56:38;10.20;;;6.53;;
8327;SDS011;4201;48.754;8.864;2024-03-23T00:59:03;10.80;;;6.27;;
8327;SDS011;4201;48.754;8.864;2024-03-23T01:01:29;8.00;;;5.50;;
8327;SDS011;4201;48.754;8.864;2024-03-23T01:03:55;7.90;;;5.80;;
8327;SDS011;4201;48.754;8.864;2024-03-23T01:06:21;9.60;;;6.60;;
8327;SDS011;4201;48.754;8.864;2024-03-23T01:08:46;8.00;;;5.70;;
8327;SDS011;4201;48.754;8.864;2024-03-23T01:11:14;7.87;;;5.27;;
8327;SDS011;4201;48.754;8.864;2024-03-23T01:13:39;9.67;;;5.40;;
8327;SDS011;4201;48.754;8.864;2024-03-23T01:16:05;8.73;;;5.03;;
8327;SDS011;4201;48.754;8.864;2024-03-23T01:18:31;5.80;;;4.37;;
8327;SDS011;4201;48.754;8.864;2024-03-23T01:20:58;6.37;;;4.40;;
8327;SDS011;4201;48.754;8.864;2024-03-23T01:23:23;10.03;;;4.90;;
8327;SDS011;4201;48.754;8.864;2024-03-23T01:25:52;11.20;;;3.80;;
8327;SDS011;4201;48.754;8.864;2024-03-23T01:28:24;5.67;;;3.77;;
8327;SDS011;4201;48.754;8.864;2024-03-23T01:30:51;8.70;;;4.90;;
8327;SDS011;4201;48.754;8.864;2024-03-23T01:33:16;5.97;;;3.67;;
8327;SDS011;4201;48.754;8.864;2024-03-23T01:35:42;6.23;;;4.37;;
8327;SDS011;4201;48.754;8.864;2024-03-23T01:38:07;5.97;;;4.77;;
8327;SDS011;4201;48.754;8.864;2024-03-23T01:40:34;5.90;;;4.17;;
8327;SDS011;4201;48.754;8.864;2024-03-23T01:43:02;8.63;;;4.43;;
8327;SDS011;4201;48.754;8.864;2024-03-23T01:45:30;11.73;;;5.07;;
8327;SDS011;4201;48.754;8.864;2024-03-23T01:47:56;5.87;;;4.30;;
8327;SDS011;4201;48.754;8.864;2024-03-23T01:50:22;6.83;;;4.03;;
8327;SDS011;4201;48.754;8.864;2024-03-23T01:52:48;7.73;;;3.80;;
8327;SDS011;4201;48.754;8.864;2024-03-23T01:55:15;4.90;;;3.27;;
8327;SDS011;4201;48.754;8.864;2024-03-23T01:57:40;9.60;;;3.80;;
8327;SDS011;4201;48.754;8.864;2024-03-23T02:00:07;8.07;;;4.23;;
8327;SDS011;4201;48.754;8.864;2024-03-23T02:02:35;9.30;;;3.50;;
8327;SDS011;4201;48.754;8.864;2024-03-23T02:05:02;7.37;;;4.33;;
8327;SDS011;4201;48.754;8.864;2024-03-23T02:07:27;5.10;;;3.50;;
8327;SDS011;4201;48.754;8.864;2024-03-23T02:09:53;7.30;;;3.80;;
8327;SDS011;4201;48.754;8.864;2024-03-23T02:12:19;7.10;;;4.00;;
8327;SDS011;4201;48.754;8.864;2024-03-23T02:14:46;10.53;;;3.53;;
8327;SDS011;4201;48.754;8.864;2024-03-23T02:17:11;6.90;;;3.70;;
8327;SDS011;4201;48.754;8.864;2024-03-23T02:19:40;5.63;;;3.60;;
8327;SDS011;4201;48.754;8.864;2024-03-23T02:22:05;6.40;;;3.40;;
8327;SDS011;4201;48.754;8.864;2024-03-23T02:24:32;8.40;;;4.20;;
8327;SDS011;4201;48.754;8.864;2024-03-23T02:26:59;7.20;;;3.70;;
8327;SDS011;4201;48.754;8.864;2024-03-23T02:29:25;11.33;;;5.00;;
8327;SDS011;4201;48.754;8.864;2024-03-23T02:31:50;7.30;;;3.80;;
8327;SDS011;4201;48.754;8.864;2024-03-23T02:34:17;5.13;;;3.50;;
8327;SDS011;4201;48.754;8.864;2024-03-23T02:36:42;6.03;;;4.20;;
8327;SDS011;4201;48.754;8.864;2024-03-23T02:39:08;6.37;;;4.00;;
8327;SDS011;4201;48.754;8.864;2024-03-23T02:41:35;5.70;;;4.20;;
8327;SDS011;4201;48.754;8.864;2024-03-23T02:44:01;11.13;;;4.77;;
8327;SDS011;4201;48.754;8.864;2024-03-23T02:46:26;5.60;;;4.33;;
8327;SDS011;4201;48.754;8.864;2024-03-23T02:48:52;6.50;;;3.80;;
8327;SDS011;4201;48.754;8.864;2024-03-23T02:51:18;6.03;;;4.33;;
8327;SDS011;4201;48.754;8.864;2024-03-23T02:53:44;7.47;;;4.00;;
8327;SDS011;4201;48.754;8.864;2024-03-23T02:56:09;6.97;;;4.47;;
8327;SDS011;4201;48.754;8.864;2024-03-23T02:58:42;5.63;;;4.50;;
8327;SDS011;4201;48.754;8.864;2024-03-23T03:01:07;6.03;;;3.90;;
8327;SDS011;4201;48.754;8.864;2024-03-23T03:03:33;6.20;;;3.90;;
8327;SDS011;4201;48.754;8.864;2024-03-23T03:05:58;12.20;;;4.47;;
8327;SDS011;4201;48.754;8.864;2024-03-23T03:08:25;6.90;;;4.27;;
8327;SDS011;4201;48.754;8.864;2024-03-23T03:10:50;6.47;;;4.40;;
8327;SDS011;4201;48.754;8.864;2024-03-23T03:13:16;10.17;;;3.60;;
8327;SDS011;4201;48.754;8.864;2024-03-23T03:15:43;8.90;;;4.30;;
8327;SDS011;4201;48.754;8.864;2024-03-23T03:18:10;6.50;;;4.77;;
8327;SDS011;4201;48.754;8.864;2024-03-23T03:20:36;6.50;;;4.30;;
8327;SDS011;4201;48.754;8.864;2024-03-23T03:23:03;5.47;;;4.33;;
8327;SDS011;4201;48.754;8.864;2024-03-23T03:25:28;5.90;;;4.00;;
8327;SDS011;4201;48.754;8.864;2024-03-23T03:27:54;5.57;;;4.33;;
8327;SDS011;4201;48.754;8.864;2024-03-23T03:30:20;8.43;;;5.20;;
8327;SDS011;4201;48.754;8.864;2024-03-23T03:32:47;7.67;;;4.47;;
8327;SDS011;4201;48.754;8.864;2024-03-23T03:35:12;7.87;;;4.53;;
8327;SDS011;4201;48.754;8.864;2024-03-23T03:37:39;5.80;;;3.93;;
8327;SDS011;4201;48.754;8.864;2024-03-23T03:40:04;5.70;;;4.40;;
8327;SDS011;4201;48.754;8.864;2024-03-23T03:42:33;5.80;;;4.43;;
8327;SDS011;4201;48.754;8.864;2024-03-23T03:44:59;5.10;;;3.87;;
8327;SDS011;4201;48.754;8.864;2024-03-23T03:47:25;5.77;;;4.33;;
8327;SDS011;4201;48.754;8.864;2024-03-23T03:49:51;6.73;;;4.40;;
8327;SDS011;4201;48.754;8.864;2024-03-23T03:52:18;6.60;;;4.00;;
8327;SDS011;4201;48.754;8.864;2024-03-23T03:54:43;7.17;;;5.33;;
8327;SDS011;4201;48.754;8.864;2024-03-23T03:57:09;7.87;;;4.20;;
8327;SDS011;4201;48.754;8.864;2024-03-23T03:59:34;13.00;;;4.30;;
8327;SDS011;4201;48.754;8.864;2024-03-23T04:02:01;6.17;;;4.03;;
8327;SDS011;4201;48.754;8.864;2024-03-23T04:04:26;5.17;;;3.40;;
8327;SDS011;4201;48.754;8.864;2024-03-23T04:06:58;7.37;;;4.20;;
8327;SDS011;4201;48.754;8.864;2024-03-23T04:09:24;6.70;;;4.00;;
8327;SDS011;4201;48.754;8.864;2024-03-23T04:11:50;7.10;;;4.53;;
8327;SDS011;4201;48.754;8.864;2024-03-23T04:14:15;6.77;;;4.00;;
8327;SDS011;4201;48.754;8.864;2024-03-23T04:16:41;8.10;;;4.20;;
8327;SDS011;4201;48.754;8.864;2024-03-23T04:19:07;8.40;;;4.47;;
8327;SDS011;4201;48.754;8.864;2024-03-23T04:21:33;5.80;;;4.10;;
8327;SDS011;4201;48.754;8.864;2024-03-23T04:24:00;7.60;;;5.57;;
8327;SDS011;4201;48.754;8.864;2024-03-23T04:26:26;10.13;;;6.73;;
8327;SDS011;4201;48.754;8.864;2024-03-23T04:28:51;9.13;;;6.70;;
8327;SDS011;4201;48.754;8.864;2024-03-23T04:31:18;8.10;;;6.53;;
8327;SDS011;4201;48.754;8.864;2024-03-23T04:33:43;9.10;;;7.20;;
8327;SDS011;4201;48.754;8.864;2024-03-23T04:36:09;13.67;;;8.73;;
8327;SDS011;4201;48.754;8.864;2024-03-23T04:38:35;13.50;;;8.40;;
8327;SDS011;4201;48.754;8.864;2024-03-23T04:41:02;12.53;;;9.37;;
8327;SDS011;4201;48.754;8.864;2024-03-23T04:43:29;14.70;;;11.50;;
8327;SDS011;4201;48.754;8.864;2024-03-23T04:45:55;19.23;;;13.37;;
8327;SDS011;4201;48.754;8.864;2024-03-23T04:48:21;21.30;;;16.97;;
8327;SDS011;4201;48.754;8.864;2024-03-23T04:50:48;22.40;;;16.97;;
8327;SDS011;4201;48.754;8.864;2024-03-23T04:53:15;25.83;;;18.93;;
8327;SDS011;4201;48.754;8.864;2024-03-23T04:55:42;27.67;;;18.20;;
8327;SDS011;4201;48.754;8.864;2024-03-23T04:58:09;24.17;;;18.60;;
8327;SDS011;4201;48.754;8.864;2024-03-23T05:00:35;22.67;;;18.57;;
8327;SDS011;4201;48.754;8.864;2024-03-23T05:03:01;20.50;;;16.13;;
8327;SDS011;4201;48.754;8.864;2024-03-23T05:05:26;25.57;;;17.00;;
8327;SDS011;4201;48.754;8.864;2024-03-23T05:07:53;25.20;;;16.53;;
8327;SDS011;4201;48.754;8.864;2024-03-23T05:10:18;21.87;;;15.90;;
8327;SDS011;4201;48.754;8.864;2024-03-23T05:12:44;23.47;;;17.30;;
8327;SDS011;4201;48.754;8.864;2024-03-23T05:15:11;22.73;;;16.60;;
8327;SDS011;4201;48.754;8.864;2024-03-23T05:17:38;27.70;;;18.00;;
8327;SDS011;4201;48.754;8.864;2024-03-23T05:20:04;21.73;;;18.07;;
8327;SDS011;4201;48.754;8.864;2024-03-23T05:22:34;24.63;;;17.13;;
8327;SDS011;4201;48.754;8.864;2024-03-23T05:24:59;22.00;;;16.77;;
8327;SDS011;4201;48.754;8.864;2024-03-23T05:27:26;23.20;;;15.77;;
8327;SDS011;4201;48.754;8.864;2024-03-23T05:29:51;22.10;;;15.27;;
8327;SDS011;4201;48.754;8.864;2024-03-23T05:32:18;17.10;;;12.30;;
8327;SDS011;4201;48.754;8.864;2024-03-23T05:34:44;13.80;;;10.93;;
8327;SDS011;4201;48.754;8.864;2024-03-23T05:37:10;13.53;;;9.83;;
8327;SDS011;4201;48.754;8.864;2024-03-23T05:39:35;14.53;;;9.70;;
8327;SDS011;4201;48.754;8.864;2024-03-23T05:42:01;12.37;;;8.80;;
8327;SDS011;4201;48.754;8.864;2024-03-23T05:44:27;11.53;;;8.43;;
8327;SDS011;4201;48.754;8.864;2024-03-23T05:46:53;8.53;;;5.93;;
8327;SDS011;4201;48.754;8.864;2024-03-23T05:49:20;7.80;;;5.60;;
8327;SDS011;4201;48.754;8.864;2024-03-23T05:51:46;9.40;;;5.90;;
8327;SDS011;4201;48.754;8.864;2024-03-23T05:54:11;7.87;;;5.33;;
8327;SDS011;4201;48.754;8.864;2024-03-23T05:56:37;7.27;;;4.63;;
8327;SDS011;4201;48.754;8.864;2024-03-23T05:59:03;5.13;;;3.10;;
8327;SDS011;4201;48.754;8.864;2024-03-23T06:01:29;4.70;;;2.70;;
8327;SDS011;4201;48.754;8.864;2024-03-23T06:03:57;4.03;;;2.20;;
8327;SDS011;4201;48.754;8.864;2024-03-23T06:06:25;4.63;;;3.00;;
8327;SDS011;4201;48.754;8.864;2024-03-23T06:08:51;5.23;;;2.33;;
8327;SDS011;4201;48.754;8.864;2024-03-23T06:11:17;4.60;;;2.50;;
8327;SDS011;4201;48.754;8.864;2024-03-23T06:13:42;5.13;;;2.53;;
8327;SDS011;4201;48.754;8.864;2024-03-23T06:16:08;3.77;;;2.17;;
8327;SDS011;4201;48.754;8.864;2024-03-23T06:18:34;4.00;;;2.30;;
8327;SDS011;4201;48.754;8.864;2024-03-23T06:21:00;3.80;;;2.03;;
8327;SDS011;4201;48.754;8.864;2024-03-23T06:23:26;5.30;;;2.20;;
8327;SDS011;4201;48.754;8.864;2024-03-23T06:25:53;6.10;;;1.60;;
8327;SDS011;4201;48.754;8.864;2024-03-23T06:28:18;2.60;;;1.47;;
8327;SDS011;4201;48.754;8.864;2024-03-23T06:30:45;2.90;;;1.43;;
8327;SDS011;4201;48.754;8.864;2024-03-23T06:33:11;3.47;;;1.80;;
8327;SDS011;4201;48.754;8.864;2024-03-23T06:35:37;4.13;;;2.13;;
8327;SDS011;4201;48.754;8.864;2024-03-23T06:38:02;2.70;;;1.60;;
8327;SDS011;4201;48.754;8.864;2024-03-23T06:40:30;2.47;;;1.20;;
8327;SDS011;4201;48.754;8.864;2024-03-23T06:42:55;2.20;;;1.20;;
8327;SDS011;4201;48.754;8.864;2024-03-23T06:45:22;2.60;;;1.30;;
8327;SDS011;4201;48.754;8.864;2024-03-23T06:47:48;2.30;;;1.17;;
8327;SDS011;4201;48.754;8.864;2024-03-23T06:50:14;2.93;;;1.20;;
8327;SDS011;4201;48.754;8.864;2024-03-23T06:52:40;3.30;;;1.80;;
8327;SDS011;4201;48.754;8.864;2024-03-23T06:55:06;2.00;;;1.10;;
8327;SDS011;4201;48.754;8.864;2024-03-23T06:57:34;2.30;;;1.20;;
8327;SDS011;4201;48.754;8.864;2024-03-23T06:59:59;3.30;;;1.07;;
8327;SDS011;4201;48.754;8.864;2024-03-23T07:02:25;1.90;;;1.00;;
8327;SDS011;4201;48.754;8.864;2024-03-23T07:04:51;2.03;;;0.97;;
8327;SDS011;4201;48.754;8.864;2024-03-23T07:07:17;2.10;;;0.93;;
8327;SDS011;4201;48.754;8.864;2024-03-23T07:09:42;1.80;;;0.90;;
8327;SDS011;4201;48.754;8.864;2024-03-23T07:12:08;3.70;;;0.90;;
8327;SDS011;4201;48.754;8.864;2024-03-23T07:14:35;3.10;;;1.00;;
8327;SDS011;4201;48.754;8.864;2024-03-23T07:17:01;1.80;;;0.90;;
8327;SDS011;4201;48.754;8.864;2024-03-23T07:19:26;4.07;;;1.23;;
8327;SDS011;4201;48.754;8.864;2024-03-23T07:21:53;2.10;;;1.00;;
8327;SDS011;4201;48.754;8.864;2024-03-23T07:24:18;2.83;;;1.00;;
8327;SDS011;4201;48.754;8.864;2024-03-23T07:26:45;2.10;;;0.80;;
8327;SDS011;4201;48.754;8.864;2024-03-23T07:29:10;2.70;;;1.20;;
8327;SDS011;4201;48.754;8.864;2024-03-23T07:31:38;2.20;;;1.17;;
8327;SDS011;4201;48.754;8.864;2024-03-23T07:34:03;2.00;;;0.90;;
8327;SDS011;4201;48.754;8.864;2024-03-23T07:36:30;4.20;;;1.80;;
8327;SDS011;4201;48.754;8.864;2024-03-23T07:38:56;1.80;;;0.90;;
8327;SDS011;4201;48.754;8.864;2024-03-23T07:41:22;1.80;;;0.80;;
8327;SDS011;4201;48.754;8.864;2024-03-23T07:43:47;2.40;;;1.20;;
8327;SDS011;4201;48.754;8.864;2024-03-23T07:46:14;2.73;;;1.20;;
8327;SDS011;4201;48.754;8.864;2024-03-23T07:48:41;2.20;;;1.10;;
8327;SDS011;4201;48.754;8.864;2024-03-23T07:51:08;2.13;;;0.93;;
8327;SDS011;4201;48.754;8.864;2024-03-23T07:53:34;2.23;;;1.03;;
8327;SDS011;4201;48.754;8.864;2024-03-23T07:56:02;2.80;;;1.30;;
8327;SDS011;4201;48.754;8.864;2024-03-23T07:58:28;2.37;;;1.13;;
8327;SDS011;4201;48.754;8.864;2024-03-23T08:00:55;6.63;;;1.10;;
8327;SDS011;4201;48.754;8.864;2024-03-23T08:03:20;3.03;;;1.30;;
8327;SDS011;4201;48.754;8.864;2024-03-23T08:05:48;3.27;;;1.33;;
8327;SDS011;4201;48.754;8.864;2024-03-23T08:08:14;3.53;;;1.30;;
8327;SDS011;4201;48.754;8.864;2024-03-23T08:10:49;3.93;;;1.47;;
8327;SDS011;4201;48.754;8.864;2024-03-23T08:13:14;3.50;;;1.93;;
8327;SDS011;4201;48.754;8.864;2024-03-23T08:15:41;3.67;;;2.10;;
8327;SDS011;4201;48.754;8.864;2024-03-23T08:18:06;3.43;;;2.10;;
8327;SDS011;4201;48.754;8.864;2024-03-23T08:20:33;3.87;;;1.77;;
8327;SDS011;4201;48.754;8.864;2024-03-23T08:22:59;3.60;;;2.03;;
8327;SDS011;4201;48.754;8.864;2024-03-23T08:25:25;4.73;;;1.87;;
8327;SDS011;4201;48.754;8.864;2024-03-23T08:27:51;3.37;;;1.77;;
8327;SDS011;4201;48.754;8.864;2024-03-23T08:30:17;9.00;;;2.97;;
8327;SDS011;4201;48.754;8.864;2024-03-23T08:32:43;3.80;;;1.80;;
8327;SDS011;4201;48.754;8.864;2024-03-23T08:35:11;4.57;;;1.90;;
8327;SDS011;4201;48.754;8.864;2024-03-23T08:37:36;3.00;;;1.70;;
8327;SDS011;4201;48.754;8.864;2024-03-23T08:40:04;10.00;;;1.80;;
8327;SDS011;4201;48.754;8.864;2024-03-23T08:42:30;3.70;;;2.33;;
8327;SDS011;4201;48.754;8.864;2024-03-23T08:44:56;5.23;;;2.40;;
8327;SDS011;4201;48.754;8.864;2024-03-23T08:47:21;3.87;;;2.20;;
8327;SDS011;4201;48.754;8.864;2024-03-23T08:49:47;5.60;;;2.00;;
8327;SDS011;4201;48.754;8.864;2024-03-23T08:52:13;3.90;;;2.47;;
8327;SDS011;4201;48.754;8.864;2024-03-23T08:54:39;8.53;;;4.00;;
8327;SDS011;4201;48.754;8.864;2024-03-23T08:57:06;5.63;;;2.97;;
8327;SDS011;4201;48.754;8.864;2024-03-23T08:59:33;7.30;;;3.77;;
8327;SDS011;4201;48.754;8.864;2024-03-23T09:01:58;7.93;;;3.93;;
8327;SDS011;4201;48.754;8.864;2024-03-23T09:04:24;6.70;;;3.53;;
8327;SDS011;4201;48.754;8.864;2024-03-23T09:06:49;6.00;;;3.63;;
8327;SDS011;4201;48.754;8.864;2024-03-23T09:09:16;6.90;;;4.37;;
8327;SDS011;4201;48.754;8.864;2024-03-23T09:11:41;10.90;;;4.80;;
8327;SDS011;4201;48.754;8.864;2024-03-23T09:14:09;9.60;;;4.03;;
8327;SDS011;4201;48.754;8.864;2024-03-23T09:16:34;8.03;;;4.40;;
8327;SDS011;4201;48.754;8.864;2024-03-23T09:19:01;8.27;;;4.20;;
8327;SDS011;4201;48.754;8.864;2024-03-23T09:21:26;6.50;;;4.10;;
8327;SDS011;4201;48.754;8.864;2024-03-23T09:23:52;8.63;;;5.13;;
8327;SDS011;4201;48.754;8.864;2024-03-23T09:26:18;7.50;;;5.00;;
8327;SDS011;4201;48.754;8.864;2024-03-23T09:28:44;6.47;;;4.50;;
8327;SDS011;4201;48.754;8.864;2024-03-23T09:31:11;8.07;;;3.93;;
8327;SDS011;4201;48.754;8.864;2024-03-23T09:33:39;17.10;;;5.00;;
8327;SDS011;4201;48.754;8.864;2024-03-23T09:36:05;10.67;;;4.57;;
8327;SDS011;4201;48.754;8.864;2024-03-23T09:38:32;8.50;;;4.53;;
8327;SDS011;4201;48.754;8.864;2024-03-23T09:40:57;7.97;;;4.63;;
8327;SDS011;4201;48.754;8.864;2024-03-23T09:43:24;9.00;;;4.60;;
8327;SDS011;4201;48.754;8.864;2024-03-23T09:45:50;12.40;;;4.70;;
8327;SDS011;4201;48.754;8.864;2024-03-23T09:48:18;11.73;;;4.87;;
8327;SDS011;4201;48.754;8.864;2024-03-23T09:50:43;12.73;;;4.83;;
8327;SDS011;4201;48.754;8.864;2024-03-23T09:53:10;11.17;;;4.60;;
8327;SDS011;4201;48.754;8.864;2024-03-23T09:55:36;11.37;;;4.03;;
8327;SDS011;4201;48.754;8.864;2024-03-23T09:58:04;12.67;;;4.20;;
8327;SDS011;4201;48.754;8.864;2024-03-23T10:00:30;7.57;;;4.60;;
8327;SDS011;4201;48.754;8.864;2024-03-23T10:02:56;11.10;;;4.87;;
8327;SDS011;4201;48.754;8.864;2024-03-23T10:05:24;12.03;;;5.80;;
8327;SDS011;4201;48.754;8.864;2024-03-23T10:07:52;8.70;;;4.60;;
8327;SDS011;4201;48.754;8.864;2024-03-23T10:10:17;10.93;;;5.90;;
8327;SDS011;4201;48.754;8.864;2024-03-23T10:12:44;14.20;;;6.37;;
8327;SDS011;4201;48.754;8.864;2024-03-23T10:15:14;11.00;;;5.20;;
8327;SDS011;4201;48.754;8.864;2024-03-23T10:17:41;10.80;;;5.40;;
8327;SDS011;4201;48.754;8.864;2024-03-23T10:20:07;12.33;;;5.60;;
8327;SDS011;4201;48.754;8.864;2024-03-23T10:22:38;12.13;;;5.50;;
8327;SDS011;4201;48.754;8.864;2024-03-23T10:25:07;10.10;;;5.20;;
8327;SDS011;4201;48.754;8.864;2024-03-23T10:27:33;13.30;;;6.23;;
8327;SDS011;4201;48.754;8.864;2024-03-23T10:29:59;10.30;;;4.37;;
8327;SDS011;4201;48.754;8.864;2024-03-23T10:32:33;14.70;;;5.00;;
8327;SDS011;4201;48.754;8.864;2024-03-23T10:35:01;11.13;;;5.57;;
8327;SDS011;4201;48.754;8.864;2024-03-23T10:37:40;10.50;;;6.20;;
8327;SDS011;4201;48.754;8.864;2024-03-23T10:40:06;11.63;;;4.57;;
8327;SDS011;4201;48.754;8.864;2024-03-23T10:42:33;7.27;;;4.10;;
8327;SDS011;4201;48.754;8.864;2024-03-23T10:44:58;11.90;;;4.00;;
8327;SDS011;4201;48.754;8.864;2024-03-23T10:47:24;8.23;;;3.47;;
8327;SDS011;4201;48.754;8.864;2024-03-23T10:49:51;9.40;;;3.13;;
8327;SDS011;4201;48.754;8.864;2024-03-23T10:52:17;6.27;;;3.20;;
8327;SDS011;4201;48.754;8.864;2024-03-23T10:54:43;11.33;;;3.83;;
8327;SDS011;4201;48.754;8.864;2024-03-23T10:57:13;11.37;;;3.60;;
8327;SDS011;4201;48.754;8.864;2024-03-23T10:59:39;6.50;;;3.33;;
8327;SDS011;4201;48.754;8.864;2024-03-23T11:02:06;4.77;;;2.53;;
8327;SDS011;4201;48.754;8.864;2024-03-23T11:04:33;3.73;;;2.37;;
8327;SDS011;4201;48.754;8.864;2024-03-23T11:06:59;4.97;;;2.70;;
8327;SDS011;4201;48.754;8.864;2024-03-23T11:09:41;4.13;;;2.47;;
8327;SDS011;4201;48.754;8.864;2024-03-23T11:12:27;5.10;;;3.00;;
8327;SDS011;4201;48.754;8.864;2024-03-23T11:14:52;7.93;;;2.60;;
8327;SDS011;4201;48.754;8.864;2024-03-23T11:17:19;6.30;;;2.50;;
8327;SDS011;4201;48.754;8.864;2024-03-23T11:19:46;3.43;;;2.03;;
8327;SDS011;4201;48.754;8.864;2024-03-23T11:22:25;3.80;;;2.40;;
8327;SDS011;4201;48.754;8.864;2024-03-23T11:25:02;9.23;;;2.20;;
8327;SDS011;4201;48.754;8.864;2024-03-23T11:27:30;5.50;;;2.20;;
8327;SDS011;4201;48.754;8.864;2024-03-23T11:30:08;6.60;;;2.77;;
8327;SDS011;4201;48.754;8.864;2024-03-23T11:32:35;5.70;;;2.30;;
8327;SDS011;4201;48.754;8.864;2024-03-23T11:35:00;8.10;;;2.57;;
8327;SDS011;4201;48.754;8.864;2024-03-23T11:37:26;5.80;;;1.93;;
8327;SDS011;4201;48.754;8.864;2024-03-23T11:39:52;11.70;;;3.70;;
8327;SDS011;4201;48.754;8.864;2024-03-23T11:42:18;9.23;;;3.30;;
8327;SDS011;4201;48.754;8.864;2024-03-23T11:44:45;10.07;;;2.87;;
8327;SDS011;4201;48.754;8.864;2024-03-23T11:47:12;7.77;;;2.50;;
8327;SDS011;4201;48.754;8.864;2024-03-23T11:49:37;6.60;;;2.00;;
8327;SDS011;4201;48.754;8.864;2024-03-23T11:52:06;10.70;;;2.63;;
8327;SDS011;4201;48.754;8.864;2024-03-23T11:54:31;9.70;;;2.63;;
8327;SDS011;4201;48.754;8.864;2024-03-23T11:56:58;13.10;;;3.30;;
8327;SDS011;4201;48.754;8.864;2024-03-23T11:59:30;11.80;;;5.80;;
8327;SDS011;4201;48.754;8.864;2024-03-23T12:01:58;11.50;;;2.20;;
8327;SDS011;4201;48.754;8.864;2024-03-23T12:04:25;7.63;;;2.40;;
8327;SDS011;4201;48.754;8.864;2024-03-23T12:06:51;10.77;;;3.17;;
8327;SDS011;4201;48.754;8.864;2024-03-23T12:09:16;12.63;;;3.00;;
8327;SDS011;4201;48.754;8.864;2024-03-23T12:11:44;6.03;;;2.63;;
8327;SDS011;4201;48.754;8.864;2024-03-23T12:14:10;6.00;;;2.40;;
8327;SDS011;4201;48.754;8.864;2024-03-23T12:16:36;8.60;;;3.00;;
8327;SDS011;4201;48.754;8.864;2024-03-23T12:19:05;7.53;;;3.00;;
8327;SDS011;4201;48.754;8.864;2024-03-23T12:21:32;7.60;;;3.23;;
8327;SDS011;4201;48.754;8.864;2024-03-23T12:23:57;7.90;;;3.37;;
8327;SDS011;4201;48.754;8.864;2024-03-23T12:26:23;9.60;;;2.50;;
8327;SDS011;4201;48.754;8.864;2024-03-23T12:28:50;18.33;;;4.03;;
8327;SDS011;4201;48.754;8.864;2024-03-23T12:31:15;8.03;;;3.33;;
8327;SDS011;4201;48.754;8.864;2024-03-23T12:33:41;10.50;;;3.90;;
8327;SDS011;4201;48.754;8.864;2024-03-23T12:36:09;6.70;;;3.80;;
8327;SDS011;4201;48.754;8.864;2024-03-23T12:38:35;11.77;;;4.60;;
8327;SDS011;4201;48.754;8.864;2024-03-23T12:41:00;7.53;;;3.97;;
8327;SDS011;4201;48.754;8.864;2024-03-23T12:43:26;14.03;;;4.43;;
8327;SDS011;4201;48.754;8.864;2024-03-23T12:45:52;6.87;;;3.43;;
8327;SDS011;4201;48.754;8.864;2024-03-23T12:48:18;8.43;;;3.73;;
8327;SDS011;4201;48.754;8.864;2024-03-23T12:50:43;14.37;;;4.57;;
8327;SDS011;4201;48.754;8.864;2024-03-23T12:53:11;10.47;;;3.43;;
8327;SDS011;4201;48.754;8.864;2024-03-23T12:55:36;10.33;;;4.20;;
8327;SDS011;4201;48.754;8.864;2024-03-23T12:58:03;6.53;;;3.13;;
8327;SDS011;4201;48.754;8.864;2024-03-23T13:00:28;9.27;;;3.40;;
8327;SDS011;4201;48.754;8.864;2024-03-23T13:02:54;8.27;;;3.40;;
8327;SDS011;4201;48.754;8.864;2024-03-23T13:05:19;11.60;;;4.07;;
8327;SDS011;4201;48.754;8.864;2024-03-23T13:07:46;9.33;;;3.43;;
8327;SDS011;4201;48.754;8.864;2024-03-23T13:10:12;11.00;;;4.03;;
8327;SDS011;4201;48.754;8.864;2024-03-23T13:12:39;10.03;;;3.63;;
8327;SDS011;4201;48.754;8.864;2024-03-23T13:15:05;8.00;;;3.10;;
8327;SDS011;4201;48.754;8.864;2024-03-23T13:17:31;6.30;;;3.40;;
8327;SDS011;4201;48.754;8.864;2024-03-23T13:19:57;9.37;;;2.67;;
8327;SDS011;4201;48.754;8.864;2024-03-23T13:22:23;8.50;;;3.40;;
8327;SDS011;4201;48.754;8.864;2024-03-23T13:24:48;5.90;;;2.60;;
8327;SDS011;4201;48.754;8.864;2024-03-23T13:27:16;9.37;;;3.10;;
8327;SDS011;4201;48.754;8.864;2024-03-23T13:29:41;11.17;;;3.83;;
8327;SDS011;4201;48.754;8.864;2024-03-23T13:32:08;6.90;;;2.77;;
8327;SDS011;4201;48.754;8.864;2024-03-23T13:34:34;10.90;;;3.33;;
8327;SDS011;4201;48.754;8.864;2024-03-23T13:37:00;6.63;;;2.77;;
8327;SDS011;4201;48.754;8.864;2024-03-23T13:39:25;7.63;;;3.07;;
8327;SDS011;4201;48.754;8.864;2024-03-23T13:41:52;8.03;;;2.57;;
8327;SDS011;4201;48.754;8.864;2024-03-23T13:44:19;8.00;;;2.50;;
8327;SDS011;4201;48.754;8.864;2024-03-23T13:46:45;9.23;;;3.00;;
8327;SDS011;4201;48.754;8.864;2024-03-23T13:49:14;6.10;;;2.67;;
8327;SDS011;4201;48.754;8.864;2024-03-23T13:51:46;7.47;;;2.90;;
8327;SDS011;4201;48.754;8.864;2024-03-23T13:54:11;15.33;;;3.27;;
8327;SDS011;4201;48.754;8.864;2024-03-23T13:56:38;7.63;;;2.20;;
8327;SDS011;4201;48.754;8.864;2024-03-23T13:59:03;5.80;;;1.90;;
8327;SDS011;4201;48.754;8.864;2024-03-23T14:01:31;4.30;;;2.40;;
8327;SDS011;4201;48.754;8.864;2024-03-23T14:03:56;5.53;;;2.03;;
8327;SDS011;4201;48.754;8.864;2024-03-23T14:06:23;5.93;;;2.00;;
8327;SDS011;4201;48.754;8.864;2024-03-23T14:08:49;4.70;;;1.70;;
8327;SDS011;4201;48.754;8.864;2024-03-23T14:11:17;3.47;;;1.80;;
8327;SDS011;4201;48.754;8.864;2024-03-23T14:13:43;3.93;;;1.57;;
8327;SDS011;4201;48.754;8.864;2024-03-23T14:16:09;3.70;;;1.83;;
8327;SDS011;4201;48.754;8.864;2024-03-23T14:18:36;5.30;;;1.97;;
8327;SDS011;4201;48.754;8.864;2024-03-23T14:21:02;5.17;;;1.80;;
8327;SDS011;4201;48.754;8.864;2024-03-23T14:23:28;8.63;;;1.87;;
8327;SDS011;4201;48.754;8.864;2024-03-23T14:25:55;3.33;;;1.60;;
8327;SDS011;4201;48.754;8.864;2024-03-23T14:28:21;4.63;;;1.73;;
8327;SDS011;4201;48.754;8.864;2024-03-23T14:30:48;6.33;;;2.40;;
8327;SDS011;4201;48.754;8.864;2024-03-23T14:33:13;8.37;;;2.20;;
8327;SDS011;4201;48.754;8.864;2024-03-23T14:35:41;5.50;;;2.10;;
8327;SDS011;4201;48.754;8.864;2024-03-23T14:38:06;6.90;;;2.07;;
8327;SDS011;4201;48.754;8.864;2024-03-23T14:40:32;5.73;;;1.90;;
8327;SDS011;4201;48.754;8.864;2024-03-23T14:42:58;8.73;;;2.73;;
8327;SDS011;4201;48.754;8.864;2024-03-23T14:45:24;5.87;;;1.70;;
8327;SDS011;4201;48.754;8.864;2024-03-23T14:47:49;6.17;;;1.50;;
8327;SDS011;4201;48.754;8.864;2024-03-23T14:50:16;3.63;;;2.00;;
8327;SDS011;4201;48.754;8.864;2024-03-23T14:52:43;9.17;;;2.40;;
8327;SDS011;4201;48.754;8.864;2024-03-23T14:55:09;6.27;;;2.30;;
8327;SDS011;4201;48.754;8.864;2024-03-23T14:57:35;4.93;;;1.97;;
8327;SDS011;4201;48.754;8.864;2024-03-23T15:00:01;5.23;;;2.57;;
8327;SDS011;4201;48.754;8.864;2024-03-23T15:02:29;3.40;;;1.57;;
8327;SDS011;4201;48.754;8.864;2024-03-23T15:04:57;2.87;;;1.40;;
8327;SDS011;4201;48.754;8.864;2024-03-23T15:07:22;6.03;;;1.60;;
8327;SDS011;4201;48.754;8.864;2024-03-23T15:09:49;5.23;;;1.60;;
8327;SDS011;4201;48.754;8.864;2024-03-23T15:12:15;8.13;;;1.60;;
8327;SDS011;4201;48.754;8.864;2024-03-23T15:14:41;2.33;;;1.27;;
8327;SDS011;4201;48.754;8.864;2024-03-23T15:17:06;4.83;;;2.00;;
8327;SDS011;4201;48.754;8.864;2024-03-23T15:19:34;7.80;;;2.30;;
8327;SDS011;4201;48.754;8.864;2024-03-23T15:21:59;5.50;;;2.10;;
8327;SDS011;4201;48.754;8.864;2024-03-23T15:24:25;3.60;;;1.63;;
8327;SDS011;4201;48.754;8.864;2024-03-23T15:26:52;4.10;;;1.37;;
8327;SDS011;4201;48.754;8.864;2024-03-23T15:29:18;4.93;;;2.13;;
8327;SDS011;4201;48.754;8.864;2024-03-23T15:31:45;3.43;;;1.63;;
8327;SDS011;4201;48.754;8.864;2024-03-23T15:34:12;3.73;;;1.40;;
8327;SDS011;4201;48.754;8.864;2024-03-23T15:36:37;10.80;;;1.93;;
8327;SDS011;4201;48.754;8.864;2024-03-23T15:39:04;4.53;;;1.57;;
8327;SDS011;4201;48.754;8.864;2024-03-23T15:41:29;4.03;;;1.77;;
8327;SDS011;4201;48.754;8.864;2024-03-23T15:43:57;6.57;;;1.67;;
8327;SDS011;4201;48.754;8.864;2024-03-23T15:46:23;5.33;;;1.97;;
8327;SDS011;4201;48.754;8.864;2024-03-23T15:48:50;9.33;;;3.77;;
8327;SDS011;4201;48.754;8.864;2024-03-23T15:51:16;4.90;;;1.80;;
8327;SDS011;4201;48.754;8.864;2024-03-23T15:53:43;2.63;;;1.40;;
8327;SDS011;4201;48.754;8.864;2024-03-23T15:56:08;4.10;;;1.50;;
8327;SDS011;4201;48.754;8.864;2024-03-23T15:58:35;2.83;;;1.33;;